sensor_id;sensor_type;location;lat;lon;timestamp;P1;durP1;ratioP1;P2;durP2;ratioP2
29280;SDS011;25048;49.590;11.026;2023-08-24T00:02:08;5.33;;;4.22;;
29280;SDS011;25048;49.590;11.026;2023-08-24T00:04:36;7.00;;;4.15;;
29280;SDS011;25048;49.590;11.026;2023-08-24T00:07:04;5.35;;;4.33;;
29280;SDS011;25048;49.590;11.026;2023-08-24T00:09:32;5.58;;;4.22;;
29280;SDS011;25048;49.590;11.026;2023-08-24T00:11:59;7.97;;;4.37;;
29280;SDS011;25048;49.590;11.026;2023-08-24T00:14:27;7.58;;;3.98;;
29280;SDS011;25048;49.590;11.026;2023-08-24T00:16:54;4.55;;;4.15;;
29280;SDS011;25048;49.590;11.026;2023-08-24T00:19:21;6.53;;;4.40;;
29280;SDS011;25048;49.590;11.026;2023-08-24T00:21:49;4.20;;;3.62;;
29280;SDS011;25048;49.590;11.026;2023-08-24T00:24:17;5.97;;;4.37;;
29280;SDS011;25048;49.590;11.026;2023-08-24T00:26:45;5.40;;;4.55;;
29280;SDS011;25048;49.590;11.026;2023-08-24T00:29:13;4.97;;;4.12;;
29280;SDS011;25048;49.590;11.026;2023-08-24T00:31:40;5.17;;;4.20;;
29280;SDS011;25048;49.590;11.026;2023-08-24T00:34:08;5.03;;;4.30;;
29280;SDS011;25048;49.590;11.026;2023-08-24T00:36:35;4.87;;;3.58;;
29280;SDS011;25048;49.590;11.026;2023-08-24T00:39:03;8.33;;;4.45;;
29280;SDS011;25048;49.590;11.026;2023-08-24T00:41:30;4.83;;;4.10;;
29280;SDS011;25048;49.590;11.026;2023-08-24T00:43:58;5.05;;;4.00;;
29280;SDS011;25048;49.590;11.026;2023-08-24T00:46:25;9.23;;;4.20;;
29280;SDS011;25048;49.590;11.026;2023-08-24T00:48:54;7.12;;;4.42;;
29280;SDS011;25048;49.590;11.026;2023-08-24T00:51:23;5.80;;;4.37;;
29280;SDS011;25048;49.590;11.026;2023-08-24T00:53:51;8.90;;;3.92;;
29280;SDS011;25048;49.590;11.026;2023-08-24T00:56:19;6.55;;;5.25;;
29280;SDS011;25048;49.590;11.026;2023-08-24T00:58:48;7.95;;;3.87;;
29280;SDS011;25048;49.590;11.026;2023-08-24T01:01:19;5.17;;;4.67;;
29280;SDS011;25048;49.590;11.026;2023-08-24T01:03:47;9.00;;;4.85;;
29280;SDS011;25048;49.590;11.026;2023-08-24T01:06:15;7.75;;;4.58;;
29280;SDS011;25048;49.590;11.026;2023-08-24T01:08:42;9.60;;;4.90;;
29280;SDS011;25048;49.590;11.026;2023-08-24T01:11:29;9.93;;;4.58;;
29280;SDS011;25048;49.590;11.026;2023-08-24T01:17:01;5.58;;;5.03;;
29280;SDS011;25048;49.590;11.026;2023-08-24T01:19:46;10.77;;;4.53;;
29280;SDS011;25048;49.590;11.026;2023-08-24T01:22:18;6.17;;;3.90;;
29280;SDS011;25048;49.590;11.026;2023-08-24T01:27:35;10.48;;;4.70;;
29280;SDS011;25048;49.590;11.026;2023-08-24T01:30:04;6.20;;;5.37;;
29280;SDS011;25048;49.590;11.026;2023-08-24T01:32:33;9.58;;;5.20;;
29280;SDS011;25048;49.590;11.026;2023-08-24T01:35:03;7.23;;;4.70;;
29280;SDS011;25048;49.590;11.026;2023-08-24T01:37:32;6.60;;;5.00;;
29280;SDS011;25048;49.590;11.026;2023-08-24T01:40:13;6.87;;;4.00;;
29280;SDS011;25048;49.590;11.026;2023-08-24T01:42:43;10.95;;;4.87;;
29280;SDS011;25048;49.590;11.026;2023-08-24T01:45:11;10.03;;;4.95;;
29280;SDS011;25048;49.590;11.026;2023-08-24T01:47:41;9.93;;;5.35;;
29280;SDS011;25048;49.590;11.026;2023-08-24T01:50:10;8.80;;;4.75;;
29280;SDS011;25048;49.590;11.026;2023-08-24T01:52:38;5.40;;;4.87;;
29280;SDS011;25048;49.590;11.026;2023-08-24T01:55:06;10.23;;;5.15;;
29280;SDS011;25048;49.590;11.026;2023-08-24T01:57:34;5.42;;;4.50;;
29280;SDS011;25048;49.590;11.026;2023-08-24T02:00:01;6.10;;;4.80;;
29280;SDS011;25048;49.590;11.026;2023-08-24T02:02:31;8.10;;;4.65;;
29280;SDS011;25048;49.590;11.026;2023-08-24T02:05:00;8.25;;;5.00;;
29280;SDS011;25048;49.590;11.026;2023-08-24T02:07:29;9.20;;;4.60;;
29280;SDS011;25048;49.590;11.026;2023-08-24T02:09:57;7.20;;;4.70;;
29280;SDS011;25048;49.590;11.026;2023-08-24T02:12:24;9.58;;;5.22;;
29280;SDS011;25048;49.590;11.026;2023-08-24T02:14:52;8.03;;;4.92;;
29280;SDS011;25048;49.590;11.026;2023-08-24T02:17:19;7.13;;;4.73;;
29280;SDS011;25048;49.590;11.026;2023-08-24T02:19:47;11.15;;;4.65;;
29280;SDS011;25048;49.590;11.026;2023-08-24T02:22:14;9.78;;;4.87;;
29280;SDS011;25048;49.590;11.026;2023-08-24T02:24:42;8.70;;;4.60;;
29280;SDS011;25048;49.590;11.026;2023-08-24T02:27:10;5.67;;;4.85;;
29280;SDS011;25048;49.590;11.026;2023-08-24T02:29:37;6.75;;;4.58;;
29280;SDS011;25048;49.590;11.026;2023-08-24T02:32:05;5.92;;;4.55;;
29280;SDS011;25048;49.590;11.026;2023-08-24T02:34:32;6.12;;;4.33;;
29280;SDS011;25048;49.590;11.026;2023-08-24T02:37:00;6.62;;;5.10;;
29280;SDS011;25048;49.590;11.026;2023-08-24T02:39:27;5.30;;;4.53;;
29280;SDS011;25048;49.590;11.026;2023-08-24T02:41:55;8.13;;;5.05;;
29280;SDS011;25048;49.590;11.026;2023-08-24T02:44:22;9.97;;;5.27;;
29280;SDS011;25048;49.590;11.026;2023-08-24T02:46:50;8.45;;;5.05;;
29280;SDS011;25048;49.590;11.026;2023-08-24T02:49:17;5.03;;;4.53;;
29280;SDS011;25048;49.590;11.026;2023-08-24T02:51:45;7.70;;;5.40;;
29280;SDS011;25048;49.590;11.026;2023-08-24T02:54:13;6.87;;;4.80;;
29280;SDS011;25048;49.590;11.026;2023-08-24T02:56:40;7.75;;;4.58;;
29280;SDS011;25048;49.590;11.026;2023-08-24T02:59:08;7.40;;;5.10;;
29280;SDS011;25048;49.590;11.026;2023-08-24T03:01:35;7.10;;;4.30;;
29280;SDS011;25048;49.590;11.026;2023-08-24T03:04:04;8.03;;;5.60;;
29280;SDS011;25048;49.590;11.026;2023-08-24T03:06:31;8.78;;;5.00;;
29280;SDS011;25048;49.590;11.026;2023-08-24T03:09:00;6.05;;;5.28;;
29280;SDS011;25048;49.590;11.026;2023-08-24T03:11:30;5.72;;;5.10;;
29280;SDS011;25048;49.590;11.026;2023-08-24T03:13:58;5.78;;;4.70;;
29280;SDS011;25048;49.590;11.026;2023-08-24T03:16:26;10.40;;;4.40;;
29280;SDS011;25048;49.590;11.026;2023-08-24T03:18:53;10.63;;;4.90;;
29280;SDS011;25048;49.590;11.026;2023-08-24T03:21:21;6.10;;;4.17;;
29280;SDS011;25048;49.590;11.026;2023-08-24T03:23:48;6.10;;;4.60;;
29280;SDS011;25048;49.590;11.026;2023-08-24T03:26:16;8.13;;;5.03;;
29280;SDS011;25048;49.590;11.026;2023-08-24T03:28:45;6.22;;;4.12;;
29280;SDS011;25048;49.590;11.026;2023-08-24T03:31:13;7.72;;;4.90;;
29280;SDS011;25048;49.590;11.026;2023-08-24T03:33:40;6.00;;;4.20;;
29280;SDS011;25048;49.590;11.026;2023-08-24T03:36:08;8.88;;;4.55;;
29280;SDS011;25048;49.590;11.026;2023-08-24T03:38:35;5.72;;;4.65;;
29280;SDS011;25048;49.590;11.026;2023-08-24T03:41:03;5.37;;;4.87;;
29280;SDS011;25048;49.590;11.026;2023-08-24T03:43:32;11.15;;;4.72;;
29280;SDS011;25048;49.590;11.026;2023-08-24T03:46:00;8.87;;;4.77;;
29280;SDS011;25048;49.590;11.026;2023-08-24T03:48:29;7.85;;;4.53;;
29280;SDS011;25048;49.590;11.026;2023-08-24T03:50:57;7.00;;;4.28;;
29280;SDS011;25048;49.590;11.026;2023-08-24T03:53:25;6.78;;;4.55;;
29280;SDS011;25048;49.590;11.026;2023-08-24T03:55:53;7.65;;;4.53;;
29280;SDS011;25048;49.590;11.026;2023-08-24T03:58:21;6.08;;;4.10;;
29280;SDS011;25048;49.590;11.026;2023-08-24T04:00:49;9.18;;;5.30;;
29280;SDS011;25048;49.590;11.026;2023-08-24T04:03:17;7.07;;;4.60;;
29280;SDS011;25048;49.590;11.026;2023-08-24T04:05:44;7.47;;;4.85;;
29280;SDS011;25048;49.590;11.026;2023-08-24T04:08:12;6.80;;;4.50;;
29280;SDS011;25048;49.590;11.026;2023-08-24T04:10:39;7.78;;;4.85;;
29280;SDS011;25048;49.590;11.026;2023-08-24T04:13:07;5.80;;;4.60;;
29280;SDS011;25048;49.590;11.026;2023-08-24T04:15:34;5.90;;;5.30;;
29280;SDS011;25048;49.590;11.026;2023-08-24T04:18:02;6.40;;;4.83;;
29280;SDS011;25048;49.590;11.026;2023-08-24T04:20:30;7.27;;;5.20;;
29280;SDS011;25048;49.590;11.026;2023-08-24T04:22:57;5.23;;;4.80;;
29280;SDS011;25048;49.590;11.026;2023-08-24T04:25:25;5.13;;;4.53;;
29280;SDS011;25048;49.590;11.026;2023-08-24T04:27:52;10.47;;;5.50;;
29280;SDS011;25048;49.590;11.026;2023-08-24T04:30:19;8.63;;;5.00;;
29280;SDS011;25048;49.590;11.026;2023-08-24T04:32:47;8.73;;;5.03;;
29280;SDS011;25048;49.590;11.026;2023-08-24T04:35:15;5.70;;;4.87;;
29280;SDS011;25048;49.590;11.026;2023-08-24T04:37:42;5.97;;;5.37;;
29280;SDS011;25048;49.590;11.026;2023-08-24T04:40:10;6.33;;;5.60;;
29280;SDS011;25048;49.590;11.026;2023-08-24T04:42:37;9.80;;;5.90;;
29280;SDS011;25048;49.590;11.026;2023-08-24T04:45:05;10.97;;;5.37;;
29280;SDS011;25048;49.590;11.026;2023-08-24T04:47:33;8.13;;;5.30;;
29280;SDS011;25048;49.590;11.026;2023-08-24T04:50:00;6.13;;;5.20;;
29280;SDS011;25048;49.590;11.026;2023-08-24T04:52:28;5.50;;;4.97;;
29280;SDS011;25048;49.590;11.026;2023-08-24T04:54:55;6.83;;;5.40;;
29280;SDS011;25048;49.590;11.026;2023-08-24T04:57:23;5.65;;;5.12;;
29280;SDS011;25048;49.590;11.026;2023-08-24T04:59:50;6.03;;;5.43;;
29280;SDS011;25048;49.590;11.026;2023-08-24T05:02:18;5.87;;;4.60;;
29280;SDS011;25048;49.590;11.026;2023-08-24T05:04:45;6.20;;;5.35;;
29280;SDS011;25048;49.590;11.026;2023-08-24T05:07:14;6.10;;;5.17;;
29280;SDS011;25048;49.590;11.026;2023-08-24T05:09:42;7.12;;;6.12;;
29280;SDS011;25048;49.590;11.026;2023-08-24T05:12:09;11.00;;;6.00;;
29280;SDS011;25048;49.590;11.026;2023-08-24T05:14:37;6.17;;;5.40;;
29280;SDS011;25048;49.590;11.026;2023-08-24T05:17:05;6.35;;;5.22;;
29280;SDS011;25048;49.590;11.026;2023-08-24T05:19:32;7.67;;;5.37;;
29280;SDS011;25048;49.590;11.026;2023-08-24T05:22:00;9.08;;;5.33;;
29280;SDS011;25048;49.590;11.026;2023-08-24T05:24:28;6.97;;;5.50;;
29280;SDS011;25048;49.590;11.026;2023-08-24T05:26:55;6.60;;;5.22;;
29280;SDS011;25048;49.590;11.026;2023-08-24T05:29:23;9.67;;;5.00;;
29280;SDS011;25048;49.590;11.026;2023-08-24T05:31:50;9.20;;;5.10;;
29280;SDS011;25048;49.590;11.026;2023-08-24T05:34:18;5.42;;;4.75;;
29280;SDS011;25048;49.590;11.026;2023-08-24T05:36:45;4.60;;;4.20;;
29280;SDS011;25048;49.590;11.026;2023-08-24T05:39:13;6.67;;;5.20;;
29280;SDS011;25048;49.590;11.026;2023-08-24T05:41:40;11.55;;;5.62;;
29280;SDS011;25048;49.590;11.026;2023-08-24T05:44:08;5.90;;;5.20;;
29280;SDS011;25048;49.590;11.026;2023-08-24T05:46:35;7.87;;;5.22;;
29280;SDS011;25048;49.590;11.026;2023-08-24T05:49:03;8.48;;;5.33;;
29280;SDS011;25048;49.590;11.026;2023-08-24T05:51:30;7.50;;;5.47;;
29280;SDS011;25048;49.590;11.026;2023-08-24T05:53:58;6.95;;;6.05;;
29280;SDS011;25048;49.590;11.026;2023-08-24T05:56:26;7.60;;;5.35;;
29280;SDS011;25048;49.590;11.026;2023-08-24T05:58:54;6.28;;;5.30;;
29280;SDS011;25048;49.590;11.026;2023-08-24T06:01:23;7.05;;;5.47;;
29280;SDS011;25048;49.590;11.026;2023-08-24T06:03:51;8.15;;;4.78;;
29280;SDS011;25048;49.590;11.026;2023-08-24T06:06:18;5.67;;;4.50;;
29280;SDS011;25048;49.590;11.026;2023-08-24T06:08:46;8.15;;;4.80;;
29280;SDS011;25048;49.590;11.026;2023-08-24T06:11:13;5.92;;;4.90;;
29280;SDS011;25048;49.590;11.026;2023-08-24T06:13:41;8.78;;;4.97;;
29280;SDS011;25048;49.590;11.026;2023-08-24T06:16:08;6.42;;;4.80;;
29280;SDS011;25048;49.590;11.026;2023-08-24T06:18:36;6.05;;;4.55;;
29280;SDS011;25048;49.590;11.026;2023-08-24T06:21:03;5.50;;;4.00;;
29280;SDS011;25048;49.590;11.026;2023-08-24T06:23:31;5.35;;;4.40;;
29280;SDS011;25048;49.590;11.026;2023-08-24T06:25:58;6.53;;;5.22;;
29280;SDS011;25048;49.590;11.026;2023-08-24T06:28:27;4.70;;;4.20;;
29280;SDS011;25048;49.590;11.026;2023-08-24T06:30:54;10.45;;;4.33;;
29280;SDS011;25048;49.590;11.026;2023-08-24T06:33:26;8.70;;;4.55;;
29280;SDS011;25048;49.590;11.026;2023-08-24T06:35:56;4.50;;;4.10;;
29280;SDS011;25048;49.590;11.026;2023-08-24T06:38:25;7.92;;;4.42;;
29280;SDS011;25048;49.590;11.026;2023-08-24T06:40:52;4.67;;;4.15;;
29280;SDS011;25048;49.590;11.026;2023-08-24T06:43:20;7.40;;;4.75;;
29280;SDS011;25048;49.590;11.026;2023-08-24T06:45:47;6.67;;;3.87;;
29280;SDS011;25048;49.590;11.026;2023-08-24T06:48:15;6.42;;;4.10;;
29280;SDS011;25048;49.590;11.026;2023-08-24T06:50:43;5.33;;;4.58;;
29280;SDS011;25048;49.590;11.026;2023-08-24T06:53:11;8.20;;;4.72;;
29280;SDS011;25048;49.590;11.026;2023-08-24T06:55:40;5.62;;;4.47;;
29280;SDS011;25048;49.590;11.026;2023-08-24T06:58:08;4.40;;;4.00;;
29280;SDS011;25048;49.590;11.026;2023-08-24T07:00:36;8.53;;;4.20;;
29280;SDS011;25048;49.590;11.026;2023-08-24T07:03:03;8.63;;;3.83;;
29280;SDS011;25048;49.590;11.026;2023-08-24T07:05:31;5.05;;;3.70;;
29280;SDS011;25048;49.590;11.026;2023-08-24T07:07:59;5.60;;;4.08;;
29280;SDS011;25048;49.590;11.026;2023-08-24T07:10:29;6.92;;;3.75;;
29280;SDS011;25048;49.590;11.026;2023-08-24T07:12:56;5.40;;;3.52;;
29280;SDS011;25048;49.590;11.026;2023-08-24T07:15:23;6.03;;;3.45;;
29280;SDS011;25048;49.590;11.026;2023-08-24T07:17:51;6.65;;;3.50;;
29280;SDS011;25048;49.590;11.026;2023-08-24T07:20:18;6.17;;;4.28;;
29280;SDS011;25048;49.590;11.026;2023-08-24T07:22:46;5.67;;;4.78;;
29280;SDS011;25048;49.590;11.026;2023-08-24T07:25:14;6.62;;;4.17;;
29280;SDS011;25048;49.590;11.026;2023-08-24T07:27:41;8.40;;;4.12;;
29280;SDS011;25048;49.590;11.026;2023-08-24T07:30:09;7.25;;;3.65;;
29280;SDS011;25048;49.590;11.026;2023-08-24T07:32:37;7.70;;;3.92;;
29280;SDS011;25048;49.590;11.026;2023-08-24T07:35:05;6.65;;;3.92;;
29280;SDS011;25048;49.590;11.026;2023-08-24T07:37:32;7.75;;;4.20;;
29280;SDS011;25048;49.590;11.026;2023-08-24T07:40:00;7.00;;;4.17;;
29280;SDS011;25048;49.590;11.026;2023-08-24T07:42:29;4.47;;;3.80;;
29280;SDS011;25048;49.590;11.026;2023-08-24T07:44:56;6.60;;;3.35;;
29280;SDS011;25048;49.590;11.026;2023-08-24T07:47:24;7.30;;;4.05;;
29280;SDS011;25048;49.590;11.026;2023-08-24T07:49:51;5.50;;;4.00;;
29280;SDS011;25048;49.590;11.026;2023-08-24T07:52:19;6.47;;;3.75;;
29280;SDS011;25048;49.590;11.026;2023-08-24T07:54:47;6.30;;;3.83;;
29280;SDS011;25048;49.590;11.026;2023-08-24T07:57:16;6.33;;;4.00;;
29280;SDS011;25048;49.590;11.026;2023-08-24T07:59:43;6.12;;;4.15;;
29280;SDS011;25048;49.590;11.026;2023-08-24T08:02:11;6.67;;;3.40;;
29280;SDS011;25048;49.590;11.026;2023-08-24T08:04:40;3.70;;;3.40;;
29280;SDS011;25048;49.590;11.026;2023-08-24T08:07:07;4.67;;;3.52;;
29280;SDS011;25048;49.590;11.026;2023-08-24T08:09:36;6.00;;;3.10;;
29280;SDS011;25048;49.590;11.026;2023-08-24T08:12:03;3.58;;;3.27;;
29280;SDS011;25048;49.590;11.026;2023-08-24T08:14:31;5.05;;;3.47;;
29280;SDS011;25048;49.590;11.026;2023-08-24T08:16:58;4.55;;;2.95;;
29280;SDS011;25048;49.590;11.026;2023-08-24T08:19:26;12.25;;;3.47;;
29280;SDS011;25048;49.590;11.026;2023-08-24T08:21:53;4.12;;;2.98;;
29280;SDS011;25048;49.590;11.026;2023-08-24T08:24:21;4.47;;;3.10;;
29280;SDS011;25048;49.590;11.026;2023-08-24T08:26:48;5.95;;;2.70;;
29280;SDS011;25048;49.590;11.026;2023-08-24T08:29:16;11.15;;;3.10;;
29280;SDS011;25048;49.590;11.026;2023-08-24T08:31:43;5.85;;;3.40;;
29280;SDS011;25048;49.590;11.026;2023-08-24T08:34:11;6.45;;;2.77;;
29280;SDS011;25048;49.590;11.026;2023-08-24T08:36:39;3.95;;;2.83;;
29280;SDS011;25048;49.590;11.026;2023-08-24T08:39:06;7.87;;;2.98;;
29280;SDS011;25048;49.590;11.026;2023-08-24T08:41:38;4.03;;;2.72;;
29280;SDS011;25048;49.590;11.026;2023-08-24T08:44:05;8.60;;;3.10;;
29280;SDS011;25048;49.590;11.026;2023-08-24T08:46:33;8.13;;;2.52;;
29280;SDS011;25048;49.590;11.026;2023-08-24T08:49:00;5.40;;;3.00;;
29280;SDS011;25048;49.590;11.026;2023-08-24T08:51:28;6.10;;;2.83;;
29280;SDS011;25048;49.590;11.026;2023-08-24T08:53:56;3.85;;;2.83;;
29280;SDS011;25048;49.590;11.026;2023-08-24T08:56:24;3.67;;;2.77;;
29280;SDS011;25048;49.590;11.026;2023-08-24T08:58:51;9.15;;;2.92;;
29280;SDS011;25048;49.590;11.026;2023-08-24T09:01:21;6.87;;;2.83;;
29280;SDS011;25048;49.590;11.026;2023-08-24T09:03:50;13.40;;;3.05;;
29280;SDS011;25048;49.590;11.026;2023-08-24T09:06:19;5.62;;;2.72;;
29280;SDS011;25048;49.590;11.026;2023-08-24T09:08:49;5.67;;;2.25;;
29280;SDS011;25048;49.590;11.026;2023-08-24T09:11:16;5.20;;;2.77;;
29280;SDS011;25048;49.590;11.026;2023-08-24T09:13:44;4.72;;;3.15;;
29280;SDS011;25048;49.590;11.026;2023-08-24T09:16:12;7.05;;;3.00;;
29280;SDS011;25048;49.590;11.026;2023-08-24T09:18:42;5.45;;;2.52;;
29280;SDS011;25048;49.590;11.026;2023-08-24T09:21:13;5.70;;;2.92;;
29280;SDS011;25048;49.590;11.026;2023-08-24T09:23:45;5.37;;;2.27;;
29280;SDS011;25048;49.590;11.026;2023-08-24T09:26:14;7.95;;;2.35;;
29280;SDS011;25048;49.590;11.026;2023-08-24T09:28:42;3.80;;;2.35;;
29280;SDS011;25048;49.590;11.026;2023-08-24T09:31:11;6.05;;;2.55;;
29280;SDS011;25048;49.590;11.026;2023-08-24T09:33:39;4.83;;;2.17;;
29280;SDS011;25048;49.590;11.026;2023-08-24T09:36:11;5.47;;;2.45;;
29280;SDS011;25048;49.590;11.026;2023-08-24T09:38:47;3.47;;;2.30;;
29280;SDS011;25048;49.590;11.026;2023-08-24T09:41:18;4.90;;;2.40;;
29280;SDS011;25048;49.590;11.026;2023-08-24T09:43:45;4.15;;;1.82;;
29280;SDS011;25048;49.590;11.026;2023-08-24T09:46:14;6.33;;;2.33;;
29280;SDS011;25048;49.590;11.026;2023-08-24T09:48:43;2.75;;;1.90;;
29280;SDS011;25048;49.590;11.026;2023-08-24T09:51:11;3.55;;;2.55;;
29280;SDS011;25048;49.590;11.026;2023-08-24T09:53:40;5.08;;;2.27;;
29280;SDS011;25048;49.590;11.026;2023-08-24T09:56:09;3.17;;;2.10;;
29280;SDS011;25048;49.590;11.026;2023-08-24T09:58:38;5.28;;;2.30;;
29280;SDS011;25048;49.590;11.026;2023-08-24T10:01:05;7.03;;;2.42;;
29280;SDS011;25048;49.590;11.026;2023-08-24T10:03:33;5.30;;;2.33;;
29280;SDS011;25048;49.590;11.026;2023-08-24T10:06:03;3.00;;;2.10;;
29280;SDS011;25048;49.590;11.026;2023-08-24T10:08:42;12.40;;;2.87;;
29280;SDS011;25048;49.590;11.026;2023-08-24T10:11:05;4.80;;;2.22;;
29280;SDS011;25048;49.590;11.026;2023-08-24T10:13:43;2.58;;;1.75;;
29280;SDS011;25048;49.590;11.026;2023-08-24T10:16:12;3.25;;;2.00;;
29280;SDS011;25048;49.590;11.026;2023-08-24T10:18:40;6.55;;;2.80;;
29280;SDS011;25048;49.590;11.026;2023-08-24T10:21:08;3.15;;;2.60;;
29280;SDS011;25048;49.590;11.026;2023-08-24T10:23:35;4.50;;;2.20;;
29280;SDS011;25048;49.590;11.026;2023-08-24T10:26:05;4.25;;;2.10;;
29280;SDS011;25048;49.590;11.026;2023-08-24T10:28:35;3.08;;;2.20;;
29280;SDS011;25048;49.590;11.026;2023-08-24T10:31:03;4.20;;;1.80;;
29280;SDS011;25048;49.590;11.026;2023-08-24T10:33:31;2.62;;;2.00;;
29280;SDS011;25048;49.590;11.026;2023-08-24T10:36:06;4.12;;;2.55;;
29280;SDS011;25048;49.590;11.026;2023-08-24T10:38:35;2.90;;;1.92;;
29280;SDS011;25048;49.590;11.026;2023-08-24T10:41:04;4.12;;;2.10;;
29280;SDS011;25048;49.590;11.026;2023-08-24T10:43:39;4.90;;;2.52;;
29280;SDS011;25048;49.590;11.026;2023-08-24T10:46:11;2.35;;;2.08;;
29280;SDS011;25048;49.590;11.026;2023-08-24T10:53:51;5.00;;;2.42;;
29280;SDS011;25048;49.590;11.026;2023-08-24T10:56:21;6.72;;;2.15;;
29280;SDS011;25048;49.590;11.026;2023-08-24T10:59:09;4.22;;;2.10;;
29280;SDS011;25048;49.590;11.026;2023-08-24T11:01:21;5.03;;;2.45;;
29280;SDS011;25048;49.590;11.026;2023-08-24T11:03:49;5.85;;;2.12;;
29280;SDS011;25048;49.590;11.026;2023-08-24T11:06:22;5.62;;;2.40;;
29280;SDS011;25048;49.590;11.026;2023-08-24T11:09:12;4.08;;;2.62;;
29280;SDS011;25048;49.590;11.026;2023-08-24T11:11:35;5.45;;;2.58;;
29280;SDS011;25048;49.590;11.026;2023-08-24T11:14:21;4.50;;;2.40;;
29280;SDS011;25048;49.590;11.026;2023-08-24T11:16:59;5.90;;;2.47;;
29280;SDS011;25048;49.590;11.026;2023-08-24T11:19:28;2.90;;;2.40;;
29280;SDS011;25048;49.590;11.026;2023-08-24T11:21:56;5.10;;;2.55;;
29280;SDS011;25048;49.590;11.026;2023-08-24T11:24:25;7.08;;;2.47;;
29280;SDS011;25048;49.590;11.026;2023-08-24T11:26:54;5.17;;;2.60;;
29280;SDS011;25048;49.590;11.026;2023-08-24T11:29:21;6.70;;;2.70;;
29280;SDS011;25048;49.590;11.026;2023-08-24T11:31:50;6.40;;;2.17;;
29280;SDS011;25048;49.590;11.026;2023-08-24T11:34:18;6.22;;;2.25;;
29280;SDS011;25048;49.590;11.026;2023-08-24T11:36:47;6.05;;;3.10;;
29280;SDS011;25048;49.590;11.026;2023-08-24T11:39:15;3.60;;;2.42;;
29280;SDS011;25048;49.590;11.026;2023-08-24T11:41:58;5.50;;;3.20;;
29280;SDS011;25048;49.590;11.026;2023-08-24T11:44:52;5.60;;;2.77;;
29280;SDS011;25048;49.590;11.026;2023-08-24T11:47:12;5.10;;;2.50;;
29280;SDS011;25048;49.590;11.026;2023-08-24T11:49:40;5.40;;;2.40;;
29280;SDS011;25048;49.590;11.026;2023-08-24T11:52:08;2.60;;;2.37;;
29280;SDS011;25048;49.590;11.026;2023-08-24T11:54:36;2.33;;;2.12;;
29280;SDS011;25048;49.590;11.026;2023-08-24T11:57:08;3.75;;;2.35;;
29280;SDS011;25048;49.590;11.026;2023-08-24T11:59:35;6.00;;;2.92;;
29280;SDS011;25048;49.590;11.026;2023-08-24T12:02:05;4.58;;;2.08;;
29280;SDS011;25048;49.590;11.026;2023-08-24T12:04:38;5.37;;;2.40;;
29280;SDS011;25048;49.590;11.026;2023-08-24T12:07:14;2.92;;;2.35;;
29280;SDS011;25048;49.590;11.026;2023-08-24T12:09:44;9.15;;;3.35;;
29280;SDS011;25048;49.590;11.026;2023-08-24T12:12:14;8.43;;;2.30;;
29280;SDS011;25048;49.590;11.026;2023-08-24T12:14:44;7.12;;;2.17;;
29280;SDS011;25048;49.590;11.026;2023-08-24T12:17:12;2.58;;;2.30;;
29280;SDS011;25048;49.590;11.026;2023-08-24T12:19:44;3.27;;;2.25;;
29280;SDS011;25048;49.590;11.026;2023-08-24T12:22:13;5.33;;;2.37;;
29280;SDS011;25048;49.590;11.026;2023-08-24T12:24:49;3.42;;;2.52;;
29280;SDS011;25048;49.590;11.026;2023-08-24T12:27:23;4.05;;;2.20;;
29280;SDS011;25048;49.590;11.026;2023-08-24T12:29:51;6.08;;;2.47;;
29280;SDS011;25048;49.590;11.026;2023-08-24T12:32:19;3.15;;;2.70;;
29280;SDS011;25048;49.590;11.026;2023-08-24T12:34:52;4.87;;;2.58;;
29280;SDS011;25048;49.590;11.026;2023-08-24T12:37:20;3.37;;;2.50;;
29280;SDS011;25048;49.590;11.026;2023-08-24T12:39:48;6.22;;;2.42;;
29280;SDS011;25048;49.590;11.026;2023-08-24T12:42:15;4.35;;;2.50;;
29280;SDS011;25048;49.590;11.026;2023-08-24T12:44:43;2.98;;;2.27;;
29280;SDS011;25048;49.590;11.026;2023-08-24T12:47:10;4.58;;;2.80;;
29280;SDS011;25048;49.590;11.026;2023-08-24T12:49:38;3.95;;;2.62;;
29280;SDS011;25048;49.590;11.026;2023-08-24T12:52:05;4.87;;;2.72;;
29280;SDS011;25048;49.590;11.026;2023-08-24T12:54:33;4.58;;;2.60;;
29280;SDS011;25048;49.590;11.026;2023-08-24T12:57:00;3.85;;;2.58;;
29280;SDS011;25048;49.590;11.026;2023-08-24T12:59:28;4.12;;;2.60;;
29280;SDS011;25048;49.590;11.026;2023-08-24T13:01:56;3.02;;;2.30;;
29280;SDS011;25048;49.590;11.026;2023-08-24T13:04:23;4.53;;;2.58;;
29280;SDS011;25048;49.590;11.026;2023-08-24T13:06:51;8.65;;;2.80;;
29280;SDS011;25048;49.590;11.026;2023-08-24T13:09:18;3.08;;;2.62;;
29280;SDS011;25048;49.590;11.026;2023-08-24T13:11:48;2.87;;;2.25;;
29280;SDS011;25048;49.590;11.026;2023-08-24T13:14:15;9.08;;;3.12;;
29280;SDS011;25048;49.590;11.026;2023-08-24T13:16:43;10.95;;;2.52;;
29280;SDS011;25048;49.590;11.026;2023-08-24T13:19:11;4.12;;;2.40;;
29280;SDS011;25048;49.590;11.026;2023-08-24T13:21:39;4.83;;;2.40;;
29280;SDS011;25048;49.590;11.026;2023-08-24T13:24:06;4.40;;;2.47;;
29280;SDS011;25048;49.590;11.026;2023-08-24T13:26:34;4.35;;;2.00;;
29280;SDS011;25048;49.590;11.026;2023-08-24T13:29:01;5.20;;;2.50;;
29280;SDS011;25048;49.590;11.026;2023-08-24T13:31:29;2.47;;;2.25;;
29280;SDS011;25048;49.590;11.026;2023-08-24T13:33:57;8.20;;;2.42;;
29280;SDS011;25048;49.590;11.026;2023-08-24T13:36:24;3.42;;;2.58;;
29280;SDS011;25048;49.590;11.026;2023-08-24T13:38:52;3.72;;;2.50;;
29280;SDS011;25048;49.590;11.026;2023-08-24T13:41:22;6.00;;;2.37;;
29280;SDS011;25048;49.590;11.026;2023-08-24T13:43:50;5.40;;;2.65;;
29280;SDS011;25048;49.590;11.026;2023-08-24T13:46:17;3.77;;;2.70;;
29280;SDS011;25048;49.590;11.026;2023-08-24T13:48:45;3.75;;;2.83;;
29280;SDS011;25048;49.590;11.026;2023-08-24T13:51:12;2.30;;;2.10;;
29280;SDS011;25048;49.590;11.026;2023-08-24T13:53:40;4.10;;;2.58;;
29280;SDS011;25048;49.590;11.026;2023-08-24T13:56:07;4.20;;;2.83;;
29280;SDS011;25048;49.590;11.026;2023-08-24T13:58:35;9.63;;;2.98;;
29280;SDS011;25048;49.590;11.026;2023-08-24T14:01:02;5.17;;;2.60;;
29280;SDS011;25048;49.590;11.026;2023-08-24T14:03:30;3.83;;;2.70;;
29280;SDS011;25048;49.590;11.026;2023-08-24T14:05:58;4.17;;;2.20;;
29280;SDS011;25048;49.590;11.026;2023-08-24T14:08:27;4.03;;;2.90;;
29280;SDS011;25048;49.590;11.026;2023-08-24T14:10:54;4.95;;;2.90;;
29280;SDS011;25048;49.590;11.026;2023-08-24T14:13:22;4.37;;;2.37;;
29280;SDS011;25048;49.590;11.026;2023-08-24T14:15:50;4.75;;;2.40;;
29280;SDS011;25048;49.590;11.026;2023-08-24T14:18:18;2.50;;;2.22;;
29280;SDS011;25048;49.590;11.026;2023-08-24T14:20:46;4.12;;;2.25;;
29280;SDS011;25048;49.590;11.026;2023-08-24T14:23:13;8.20;;;2.77;;
29280;SDS011;25048;49.590;11.026;2023-08-24T14:25:41;3.85;;;2.83;;
29280;SDS011;25048;49.590;11.026;2023-08-24T14:28:08;3.90;;;2.65;;
29280;SDS011;25048;49.590;11.026;2023-08-24T14:30:35;5.20;;;2.77;;
29280;SDS011;25048;49.590;11.026;2023-08-24T14:33:03;3.55;;;2.55;;
29280;SDS011;25048;49.590;11.026;2023-08-24T14:35:31;6.35;;;2.83;;
29280;SDS011;25048;49.590;11.026;2023-08-24T14:37:58;2.50;;;2.30;;
29280;SDS011;25048;49.590;11.026;2023-08-24T14:40:26;6.78;;;2.65;;
29280;SDS011;25048;49.590;11.026;2023-08-24T14:42:53;4.42;;;2.65;;
29280;SDS011;25048;49.590;11.026;2023-08-24T14:45:20;7.10;;;2.60;;
29280;SDS011;25048;49.590;11.026;2023-08-24T14:47:48;6.58;;;2.67;;
29280;SDS011;25048;49.590;11.026;2023-08-24T14:50:16;5.85;;;2.72;;
29280;SDS011;25048;49.590;11.026;2023-08-24T14:52:43;3.75;;;2.58;;